Time;durP1;ratioP1;P1;durP2;ratioP2;P2;SDS_P1;SDS_P2;PMS_P1;PMS_P2;Temp;Humidity;BMP_temperature;BMP_pressure;BME280_temperature;BME280_humidity;BME280_pressure;Samples;Min_cycle;Max_cycle;Signal;HPM_P1;HPM_P2
2024/04/22 00:01:45;;;;;;;2.42;0.30;;;2.90;99.90;;;;;;5459323;26;20010;-76
2024/04/22 00:04:11;;;;;;;1.67;0.20;;;2.90;99.90;;;;;;5460166;26;20066;-76
2024/04/22 00:06:37;;;;;;;2.53;0.20;;;2.90;99.90;;;;;;5458866;26;20449;-76
2024/04/22 00:09:03;;;;;;;6.85;0.43;;;2.90;99.90;;;;;;5493122;26;20333;-76
2024/04/22 00:11:29;;;;;;;0.65;0.30;;;;;;;;;;5491398;26;20005;-76
2024/04/22 00:13:55;;;;;;;0.75;0.17;;;2.90;99.90;;;;;;5524704;26;19994;-76
2024/04/22 00:16:20;;;;;;;0.75;0.20;;;2.90;99.90;;;;;;5463564;26;20062;-76
2024/04/22 00:18:46;;;;;;;1.25;0.35;;;2.80;99.90;;;;;;5495166;26;20009;-75
2024/04/22 00:21:14;;;;;;;1.05;0.32;;;2.70;99.90;;;;;;5496954;26;19994;-75
2024/04/22 00:23:40;;;;;;;0.90;0.85;;;2.70;99.90;;;;;;5463868;26;20002;-75
2024/04/22 00:26:05;;;;;;;2.60;0.35;;;2.70;99.90;;;;;;5496638;26;20409;-75
2024/04/22 00:28:31;;;;;;;1.60;0.60;;;2.70;99.90;;;;;;5496359;26;20002;-75
2024/04/22 00:30:57;;;;;;;2.67;0.75;;;2.70;99.90;;;;;;5465549;26;20005;-75
2024/04/22 00:33:22;;;;;;;1.75;0.50;;;2.60;99.90;;;;;;5464658;26;19998;-75
2024/04/22 00:35:58;;;;;;;0.45;0.17;;;2.60;99.90;;;;;;5464510;26;20006;-76
2024/04/22 00:38:32;;;;;;;2.03;0.43;;;2.50;99.90;;;;;;5463824;26;19994;-76
2024/04/22 00:40:58;;;;;;;2.38;0.70;;;2.50;99.90;;;;;;5496518;26;20010;-76
2024/04/22 00:43:25;;;;;;;1.70;0.30;;;2.50;99.90;;;;;;5464362;26;19994;-76
2024/04/22 00:45:51;;;;;;;2.20;0.22;;;2.40;99.90;;;;;;5496275;26;20005;-75
2024/04/22 00:48:22;;;;;;;1.33;0.30;;;2.40;99.90;;;;;;5496802;26;20006;-75
2024/04/22 00:50:51;;;;;;;4.38;0.45;;;2.40;99.90;;;;;;5465302;26;19998;-75
2024/04/22 00:53:17;;;;;;;1.80;0.68;;;2.40;99.90;;;;;;5496595;26;20334;-75
2024/04/22 00:55:44;;;;;;;4.97;0.65;;;2.40;99.90;;;;;;5495707;26;20034;-75
2024/04/22 00:58:11;;;;;;;1.20;0.40;;;2.40;99.90;;;;;;5497353;26;20461;-75
2024/04/22 01:00:38;;;;;;;1.60;0.30;;;2.40;99.90;;;;;;5463915;26;19991;-75
2024/04/22 01:03:04;;;;;;;1.40;0.40;;;3.50;99.90;;;;;;5464814;26;20346;-75
2024/04/22 01:05:30;;;;;;;2.85;0.63;;;2.30;99.90;;;;;;5496198;26;19998;-75
2024/04/22 01:07:56;;;;;;;0.82;0.20;;;2.30;99.90;;;;;;5496240;26;20013;-75
2024/04/22 01:10:22;;;;;;;0.88;0.32;;;2.30;99.90;;;;;;5495966;26;20038;-75
2024/04/22 01:12:48;;;;;;;1.75;0.20;;;2.30;99.90;;;;;;5464405;26;20000;-75
2024/04/22 01:15:14;;;;;;;1.95;0.20;;;2.30;99.90;;;;;;5496848;26;20009;-75
2024/04/22 01:17:48;;;;;;;2.22;0.20;;;2.20;99.90;;;;;;5463885;26;20006;-75
2024/04/22 01:20:16;;;;;;;0.90;0.35;;;2.20;99.90;;;;;;5496328;26;20341;-75
2024/04/22 01:22:41;;;;;;;0.85;0.30;;;2.20;99.90;;;;;;5495899;26;20006;-75
2024/04/22 01:25:07;;;;;;;2.88;0.20;;;2.10;99.90;;;;;;5464105;26;20329;-75
2024/04/22 01:27:34;;;;;;;2.22;0.35;;;2.10;99.90;;;;;;5496504;26;19994;-75
2024/04/22 01:30:02;;;;;;;0.52;0.10;;;2.10;99.90;;;;;;5496553;26;20069;-75
2024/04/22 01:32:29;;;;;;;0.98;0.35;;;2.10;99.90;;;;;;5464452;26;19997;-75
2024/04/22 01:34:57;;;;;;;1.45;0.22;;;2.10;99.90;;;;;;5496973;26;20026;-75
2024/04/22 01:37:23;;;;;;;0.90;0.30;;;2.10;99.90;;;;;;5496439;26;20010;-76
2024/04/22 01:39:49;;;;;;;1.30;0.20;;;2.00;99.90;;;;;;5464381;26;19994;-76
2024/04/22 01:42:14;;;;;;;4.35;0.47;;;2.00;99.90;;;;;;5464642;26;19994;-76
2024/04/22 01:44:40;;;;;;;0.60;0.20;;;2.00;99.90;;;;;;5496118;26;20020;-75
2024/04/22 01:47:07;;;;;;;1.98;0.20;;;2.00;99.90;;;;;;5495634;26;20037;-75
2024/04/22 01:49:33;;;;;;;2.53;0.50;;;;;;;;;;5497512;26;20081;-76
2024/04/22 01:51:59;;;;;;;1.92;0.30;;;1.90;99.90;;;;;;5496173;26;20002;-76
2024/04/22 01:54:25;;;;;;;1.25;0.32;;;1.90;99.90;;;;;;5464204;26;19994;-76
2024/04/22 01:56:50;;;;;;;0.93;0.17;;;1.90;99.90;;;;;;5463767;26;20337;-76
2024/04/22 01:59:16;;;;;;;0.93;0.30;;;1.90;99.90;;;;;;5495787;26;19994;-75
2024/04/22 02:01:43;;;;;;;1.13;0.17;;;1.90;99.90;;;;;;5464394;26;20546;-76
2024/04/22 02:04:09;;;;;;;1.67;0.20;;;1.80;99.90;;;;;;5496139;26;20365;-76
2024/04/22 02:06:35;;;;;;;0.95;0.20;;;1.80;99.90;;;;;;5463470;26;20359;-76
2024/04/22 02:09:02;;;;;;;0.57;0.35;;;1.80;99.90;;;;;;5463824;26;19994;-76
2024/04/22 02:11:28;;;;;;;0.63;0.20;;;1.80;99.90;;;;;;5463924;26;19998;-76
2024/04/22 02:13:54;;;;;;;2.60;0.55;;;1.70;99.90;;;;;;5494986;26;20395;-76
2024/04/22 02:16:19;;;;;;;3.08;0.85;;;1.70;99.90;;;;;;5463351;26;20005;-75
2024/04/22 02:18:45;;;;;;;1.23;0.30;;;1.70;99.90;;;;;;5495781;26;20333;-76
2024/04/22 02:21:11;;;;;;;1.27;0.30;;;1.60;99.90;;;;;;5496102;26;20326;-76
2024/04/22 02:23:37;;;;;;;1.83;0.80;;;1.60;99.90;;;;;;5496098;26;19994;-76
2024/04/22 02:26:03;;;;;;;1.98;0.50;;;1.60;99.90;;;;;;5495726;26;20009;-75
2024/04/22 02:28:29;;;;;;;1.48;0.43;;;1.50;99.90;;;;;;5463456;26;20006;-76
2024/04/22 02:30:56;;;;;;;1.67;0.75;;;1.60;99.90;;;;;;5495432;26;19998;-76
2024/04/22 02:33:22;;;;;;;4.00;0.45;;;1.50;99.90;;;;;;5494511;26;19994;-75
2024/04/22 02:35:48;;;;;;;2.28;0.38;;;1.50;99.90;;;;;;5463073;26;20001;-75
2024/04/22 02:38:16;;;;;;;1.48;0.40;;;1.50;99.90;;;;;;5462600;26;20009;-75
2024/04/22 02:40:42;;;;;;;5.47;0.87;;;2.60;99.90;;;;;;5495976;26;20066;-76
2024/04/22 02:43:08;;;;;;;0.98;0.20;;;1.50;99.90;;;;;;5494099;26;20223;-76
2024/04/22 02:45:34;;;;;;;2.63;0.30;;;1.50;99.90;;;;;;5494952;26;20009;-75
2024/04/22 02:47:59;;;;;;;4.72;0.30;;;1.50;99.90;;;;;;5462919;26;19994;-75
2024/04/22 02:50:25;;;;;;;4.65;0.50;;;1.50;99.90;;;;;;5494214;26;20010;-76
2024/04/22 02:52:50;;;;;;;1.63;0.10;;;1.50;99.90;;;;;;5495004;26;20457;-75
2024/04/22 02:55:16;;;;;;;1.00;0.28;;;1.60;99.90;;;;;;5494841;26;20009;-76
2024/04/22 02:57:41;;;;;;;3.25;0.20;;;1.50;99.90;;;;;;5493374;26;20414;-76
2024/04/22 03:00:08;;;;;;;3.00;0.28;;;1.60;99.90;;;;;;5493585;26;20449;-76
2024/04/22 03:02:34;;;;;;;2.03;0.20;;;1.50;99.90;;;;;;5461375;26;20070;-76
2024/04/22 03:04:59;;;;;;;0.93;0.25;;;1.50;99.90;;;;;;5461139;26;20010;-76
2024/04/22 03:07:27;;;;;;;2.55;0.03;;;1.60;99.90;;;;;;5460673;26;19990;-76
2024/04/22 03:09:52;;;;;;;1.45;0.15;;;1.60;99.90;;;;;;5493167;26;20004;-76
2024/04/22 03:12:18;;;;;;;2.65;0.20;;;1.50;99.90;;;;;;5461533;26;19994;-76
2024/04/22 03:14:43;;;;;;;0.65;0.10;;;1.60;99.90;;;;;;5495118;26;20557;-76
2024/04/22 03:17:09;;;;;;;1.05;0.20;;;1.60;99.90;;;;;;5493913;26;20016;-76
2024/04/22 03:19:34;;;;;;;3.85;0.13;;;1.70;99.90;;;;;;5494349;26;19998;-76
2024/04/22 03:22:00;;;;;;;2.38;0.20;;;1.70;99.90;;;;;;5493795;26;20004;-76
2024/04/22 03:24:26;;;;;;;3.17;0.10;;;1.80;99.90;;;;;;5494023;26;20009;-76
2024/04/22 03:26:51;;;;;;;1.38;0.10;;;1.90;99.90;;;;;;5461995;26;19990;-76
2024/04/22 03:29:17;;;;;;;1.95;0.10;;;1.90;99.90;;;;;;5494583;26;19994;-76
2024/04/22 03:31:42;;;;;;;3.25;0.10;;;2.00;99.90;;;;;;5493860;26;20006;-76
2024/04/22 03:34:08;;;;;;;4.85;0.47;;;2.00;99.90;;;;;;5493568;26;20008;-76
2024/04/22 03:36:34;;;;;;;3.25;0.28;;;2.10;99.90;;;;;;5492449;26;20006;-76
2024/04/22 03:38:59;;;;;;;0.20;0.10;;;2.10;99.90;;;;;;5492780;26;20344;-76
2024/04/22 03:41:27;;;;;;;1.52;0.17;;;2.10;99.90;;;;;;5459499;26;20006;-75
2024/04/22 03:43:53;;;;;;;1.90;0.05;;;2.10;99.90;;;;;;5493666;26;19994;-76
2024/04/22 03:51:47;;;;;;;1.20;0.10;;;;;;;;;;5497190;26;20099;-76
2024/04/22 03:54:13;;;;;;;0.45;0.08;;;2.10;99.90;;;;;;5496520;26;20006;-76
2024/04/22 03:56:38;;;;;;;1.08;0.00;;;2.10;99.90;;;;;;5496291;26;19994;-76
2024/04/22 03:59:04;;;;;;;1.90;0.05;;;2.10;99.90;;;;;;5464734;26;20001;-76
2024/04/22 04:01:30;;;;;;;0.38;0.17;;;2.00;99.90;;;;;;5495369;26;20030;-76
2024/04/22 04:03:58;;;;;;;0.70;0.08;;;2.00;99.90;;;;;;5495800;26;20009;-76
2024/04/22 04:06:23;;;;;;;0.20;0.10;;;2.00;99.90;;;;;;5464303;26;19990;-76
2024/04/22 04:08:49;;;;;;;0.45;0.00;;;2.10;99.90;;;;;;5495956;26;20591;-76
2024/04/22 04:11:16;;;;;;;1.40;0.10;;;2.00;99.90;;;;;;5464666;26;20481;-76
2024/04/22 04:13:44;;;;;;;1.73;0.10;;;1.90;99.90;;;;;;5496709;26;19994;-76
2024/04/22 04:16:13;;;;;;;0.93;0.10;;;1.90;99.90;;;;;;5464258;26;20026;-76
2024/04/22 04:18:41;;;;;;;0.73;0.08;;;1.90;99.90;;;;;;5463601;26;20463;-76
2024/04/22 04:21:07;;;;;;;1.20;0.10;;;1.80;99.90;;;;;;5495913;26;20066;-76
2024/04/22 04:23:33;;;;;;;1.95;0.15;;;1.80;99.90;;;;;;5463011;26;19998;-76
2024/04/22 04:25:58;;;;;;;4.28;0.88;;;1.80;99.90;;;;;;5464107;26;20001;-76
2024/04/22 04:28:25;;;;;;;2.45;0.03;;;1.80;99.90;;;;;;5496502;26;20038;-76
2024/04/22 04:30:55;;;;;;;1.00;0.47;;;1.80;99.90;;;;;;5463104;26;20067;-76
2024/04/22 04:33:20;;;;;;;0.65;0.10;;;1.80;99.90;;;;;;5495835;26;20070;-76
2024/04/22 04:35:47;;;;;;;0.65;0.00;;;1.80;99.90;;;;;;5495577;26;20002;-76
2024/04/22 04:38:13;;;;;;;3.30;0.10;;;1.80;99.90;;;;;;5462493;26;20071;-76
2024/04/22 04:40:38;;;;;;;1.48;0.10;;;1.80;99.90;;;;;;5462865;26;19998;-76
2024/04/22 04:43:04;;;;;;;2.10;0.20;;;1.90;99.90;;;;;;5463274;26;20001;-76
2024/04/22 04:45:30;;;;;;;1.55;0.10;;;1.90;99.90;;;;;;5495774;26;20005;-76
2024/04/22 04:47:55;;;;;;;3.40;0.17;;;1.90;99.90;;;;;;5496252;26;20004;-75
2024/04/22 04:50:21;;;;;;;0.98;0.30;;;1.90;99.90;;;;;;5464598;26;19994;-75
2024/04/22 04:52:46;;;;;;;2.30;0.55;;;2.00;99.90;;;;;;5496943;26;19994;-75
2024/04/22 04:55:12;;;;;;;1.90;0.35;;;2.00;99.90;;;;;;5496430;26;20005;-75
2024/04/22 04:57:37;;;;;;;2.45;0.20;;;2.00;99.90;;;;;;5495389;26;19998;-75
2024/04/22 05:00:04;;;;;;;1.67;0.10;;;2.00;99.90;;;;;;5496902;26;19994;-75
2024/04/22 05:02:29;;;;;;;4.35;0.35;;;2.10;99.90;;;;;;5462510;26;20011;-75
2024/04/22 05:04:55;;;;;;;2.83;0.10;;;2.10;99.90;;;;;;5496110;26;19994;-75
2024/04/22 05:07:21;;;;;;;1.27;0.00;;;2.20;99.90;;;;;;5463096;26;19998;-75
2024/04/22 05:09:47;;;;;;;3.17;0.10;;;;;;;;;;5494822;26;20349;-76
2024/04/22 05:12:12;;;;;;;4.13;0.40;;;2.30;99.90;;;;;;5524825;26;19990;-76
2024/04/22 05:14:38;;;;;;;3.05;0.30;;;2.30;99.90;;;;;;5495039;26;20013;-75
2024/04/22 05:17:03;;;;;;;2.10;0.10;;;2.40;99.90;;;;;;5495079;26;20006;-75
2024/04/22 05:19:29;;;;;;;8.27;0.17;;;2.40;99.90;;;;;;5494622;26;20008;-75
2024/04/22 05:21:55;;;;;;;3.03;0.00;;;2.50;99.90;;;;;;5494379;26;20043;-75
2024/04/22 05:24:21;;;;;;;0.57;0.10;;;2.50;99.90;;;;;;5495010;26;20336;-75
2024/04/22 05:26:46;;;;;;;1.02;0.10;;;2.60;99.90;;;;;;5461992;26;19991;-76
2024/04/22 05:29:12;;;;;;;2.60;0.25;;;2.60;99.90;;;;;;5461921;26;19990;-74
2024/04/22 05:31:37;;;;;;;3.80;0.40;;;2.70;99.90;;;;;;5461878;26;19998;-75
2024/04/22 05:36:47;;;;;;;1.45;0.10;;;3.00;99.90;;;;;;5495010;26;20084;-75
2024/04/22 05:39:12;;;;;;;0.95;0.00;;;2.90;99.90;;;;;;5461596;26;20006;-75
2024/04/22 05:41:39;;;;;;;0.95;0.00;;;3.10;99.90;;;;;;5493219;26;20005;-75
2024/04/22 05:44:06;;;;;;;1.20;0.00;;;3.10;99.90;;;;;;5460999;26;19998;-75
2024/04/22 05:46:31;;;;;;;0.38;0.10;;;3.30;99.90;;;;;;5461435;26;20001;-75
2024/04/22 05:48:57;;;;;;;2.50;0.00;;;3.60;99.90;;;;;;5460959;26;19989;-75
2024/04/22 05:51:22;;;;;;;0.98;0.00;;;3.40;99.90;;;;;;5461419;26;20066;-75
2024/04/22 05:53:48;;;;;;;1.38;0.10;;;3.50;99.90;;;;;;5494205;26;19994;-75
2024/04/22 05:56:14;;;;;;;2.00;0.00;;;;;;;;;;5493345;26;19994;-76
2024/04/22 05:58:40;;;;;;;3.53;0.85;;;3.80;99.90;;;;;;5493164;26;20031;-75
2024/04/22 06:01:05;;;;;;;1.50;0.10;;;3.90;99.90;;;;;;5493096;26;19998;-75
2024/04/22 06:03:31;;;;;;;1.75;0.00;;;4.00;99.90;;;;;;5492331;26;19998;-76
2024/04/22 06:05:56;;;;;;;1.92;0.10;;;4.10;99.90;;;;;;5459483;26;20002;-76
2024/04/22 06:08:22;;;;;;;1.85;0.10;;;4.30;99.90;;;;;;5459334;26;20074;-76
2024/04/22 06:10:48;;;;;;;0.95;0.00;;;4.40;99.90;;;;;;5489819;26;20010;-77
2024/04/22 06:13:13;;;;;;;5.63;0.10;;;4.70;99.90;;;;;;5459680;26;19990;-75
2024/04/22 06:15:41;;;;;;;3.08;0.20;;;4.60;99.90;;;;;;5491551;26;20070;-75
2024/04/22 06:18:06;;;;;;;4.65;0.82;;;6.00;99.90;;;;;;5491560;26;20021;-76
2024/04/22 06:20:32;;;;;;;3.58;0.95;;;4.90;99.90;;;;;;5491279;26;19998;-76
2024/04/22 06:22:58;;;;;;;1.10;0.00;;;5.00;99.90;;;;;;5459230;26;20433;-76
2024/04/22 06:25:27;;;;;;;1.75;0.00;;;;;;;;;;5491181;26;20002;-75
2024/04/22 06:27:53;;;;;;;1.77;0.03;;;5.20;99.90;;;;;;5520237;26;19994;-76
2024/04/22 06:30:18;;;;;;;0.68;0.05;;;5.30;99.90;;;;;;5491177;26;20134;-76
2024/04/22 06:32:44;;;;;;;0.85;0.38;;;5.40;99.90;;;;;;5458996;26;19990;-77
2024/04/22 06:35:09;;;;;;;2.63;0.10;;;5.60;99.90;;;;;;5491176;26;19994;-76
2024/04/22 06:37:35;;;;;;;2.65;0.17;;;5.80;99.90;;;;;;5458821;26;19994;-77
2024/04/22 06:40:01;;;;;;;2.75;0.10;;;5.80;99.90;;;;;;5490933;26;19998;-76
2024/04/22 06:42:27;;;;;;;1.98;0.10;;;6.00;99.90;;;;;;5490956;26;19994;-75
2024/04/22 06:44:53;;;;;;;1.20;0.20;;;6.10;99.90;;;;;;5458461;26;19994;-76
2024/04/22 06:47:18;;;;;;;3.60;0.05;;;6.20;99.90;;;;;;5458572;26;20341;-76
2024/04/22 06:49:44;;;;;;;1.35;0.00;;;6.40;99.90;;;;;;5458672;26;20010;-76
2024/04/22 06:52:11;;;;;;;5.72;0.22;;;6.50;99.90;;;;;;5458602;26;20051;-76
2024/04/22 06:54:37;;;;;;;1.60;0.00;;;6.60;99.90;;;;;;5490908;26;20006;-75
2024/04/22 06:57:04;;;;;;;3.72;0.00;;;6.90;99.90;;;;;;5490311;26;19990;-76
2024/04/22 06:59:29;;;;;;;4.53;0.47;;;6.80;99.90;;;;;;5490336;26;20008;-76
2024/04/22 07:01:55;;;;;;;3.17;0.10;;;8.10;99.90;;;;;;5490875;26;19994;-76
2024/04/22 07:04:21;;;;;;;0.43;0.13;;;7.30;99.90;;;;;;5490670;26;20010;-76
2024/04/22 07:06:46;;;;;;;5.90;0.00;;;7.50;99.90;;;;;;5458010;26;19994;-75
2024/04/22 07:09:16;;;;;;;2.53;0.05;;;7.60;99.90;;;;;;5457978;26;20006;-76
2024/04/22 07:11:43;;;;;;;2.33;0.00;;;7.60;99.90;;;;;;5458259;26;19990;-76
2024/04/22 07:14:13;;;;;;;4.55;0.08;;;8.80;99.90;;;;;;5458142;26;19994;-76
2024/04/22 07:16:41;;;;;;;3.53;0.57;;;8.40;99.90;;;;;;5458089;26;20445;-76
2024/04/22 07:19:08;;;;;;;1.70;0.00;;;9.40;99.90;;;;;;5490231;26;19998;-76
2024/04/22 07:21:33;;;;;;;2.72;0.10;;;8.20;99.90;;;;;;5457346;26;19994;-76
2024/04/22 07:23:59;;;;;;;4.40;0.25;;;8.40;99.90;;;;;;5490404;26;20063;-76
2024/04/22 07:26:24;;;;;;;3.72;0.25;;;8.40;99.90;;;;;;5490235;26;19994;-76
2024/04/22 07:28:51;;;;;;;5.80;0.20;;;8.60;99.90;;;;;;5490251;26;19998;-76
2024/04/22 07:31:17;;;;;;;3.67;0.20;;;8.70;99.90;;;;;;5457601;26;19998;-75
2024/04/22 07:33:43;;;;;;;3.35;0.20;;;8.80;99.90;;;;;;5457429;26;19998;-76
2024/04/22 07:36:40;;;;;;;4.13;0.43;;;8.80;99.90;;;;;;5490042;26;19994;-76
2024/04/22 07:39:07;;;;;;;2.47;0.10;;;9.00;99.90;;;;;;5445148;26;20407;-76
2024/04/22 07:41:33;;;;;;;6.88;0.32;;;9.10;99.90;;;;;;5457715;26;20039;-76
2024/04/22 07:43:58;;;;;;;4.65;0.55;;;9.20;99.90;;;;;;5458035;26;20002;-76
2024/04/22 07:46:24;;;;;;;4.68;0.30;;;9.30;99.90;;;;;;5489776;26;20026;-76
2024/04/22 07:48:51;;;;;;;2.72;0.20;;;9.50;99.90;;;;;;5489692;26;19998;-76
2024/04/22 07:51:16;;;;;;;5.13;0.15;;;9.50;99.90;;;;;;5489460;26;20022;-76
2024/04/22 07:53:42;;;;;;;6.28;0.30;;;9.60;99.90;;;;;;5457246;26;20005;-76
2024/04/22 07:56:15;;;;;;;2.28;0.52;;;9.50;99.90;;;;;;5489636;26;20021;-76
2024/04/22 07:58:42;;;;;;;5.15;0.10;;;9.50;99.90;;;;;;5457289;26;20005;-76
2024/04/22 08:01:08;;;;;;;3.13;0.05;;;9.60;99.90;;;;;;5489381;26;20044;-76
2024/04/22 08:03:34;;;;;;;7.40;0.30;;;9.70;99.90;;;;;;5457550;26;20329;-76
2024/04/22 08:06:04;;;;;;;5.75;0.32;;;9.80;99.90;;;;;;5457401;26;20165;-76
2024/04/22 08:08:35;;;;;;;4.15;0.45;;;9.90;99.90;;;;;;5456955;26;19994;-76
2024/04/22 08:11:01;;;;;;;9.35;0.22;;;10.00;99.90;;;;;;5457580;26;19994;-76
2024/04/22 08:13:26;;;;;;;5.65;0.52;;;10.00;99.90;;;;;;5457464;26;20402;-77
2024/04/22 08:15:52;;;;;;;5.97;0.10;;;10.10;99.90;;;;;;5457177;26;20405;-76
2024/04/22 08:18:19;;;;;;;3.90;0.10;;;10.20;99.90;;;;;;5489631;26;20344;-76
2024/04/22 08:20:44;;;;;;;4.07;0.10;;;10.30;99.90;;;;;;5489198;26;20001;-76
2024/04/22 08:23:10;;;;;;;1.67;0.05;;;10.30;99.90;;;;;;5456857;26;19990;-77
2024/04/22 08:25:36;;;;;;;1.48;0.52;;;10.40;99.90;;;;;;5457075;26;19998;-76
2024/04/22 08:28:01;;;;;;;4.15;0.35;;;10.40;99.90;;;;;;5456527;26;20030;-76
2024/04/22 08:30:27;;;;;;;1.95;0.10;;;10.40;99.90;;;;;;5489343;26;20005;-76
2024/04/22 08:32:54;;;;;;;3.60;0.05;;;10.60;99.90;;;;;;5457657;26;20001;-76
2024/04/22 08:35:20;;;;;;;3.10;0.00;;;10.70;99.90;;;;;;5492549;26;20078;-76
2024/04/22 08:37:45;;;;;;;5.72;0.30;;;10.80;99.90;;;;;;5492387;26;20005;-76
2024/04/22 08:40:12;;;;;;;5.47;0.13;;;10.90;99.90;;;;;;5492514;26;19997;-76
2024/04/22 08:42:38;;;;;;;5.47;0.20;;;11.10;99.90;;;;;;5460360;26;19994;-77
2024/04/22 08:45:07;;;;;;;0.63;0.00;;;11.10;99.90;;;;;;5493034;26;20038;-76
2024/04/22 08:47:33;;;;;;;2.17;0.22;;;11.10;99.90;;;;;;5492041;26;20002;-77
2024/04/22 08:49:59;;;;;;;5.70;0.03;;;11.20;99.90;;;;;;5460307;26;20359;-76
2024/04/22 08:52:25;;;;;;;2.05;0.10;;;11.10;99.90;;;;;;5492552;26;20091;-76
2024/04/22 08:54:51;;;;;;;1.20;0.20;;;11.20;99.90;;;;;;5492581;26;20002;-76
2024/04/22 08:57:17;;;;;;;2.00;0.17;;;11.50;99.90;;;;;;5492233;26;19994;-76
2024/04/22 08:59:44;;;;;;;1.02;0.00;;;11.60;99.90;;;;;;5460280;26;20005;-76
2024/04/22 09:02:12;;;;;;;0.73;0.38;;;11.50;99.90;;;;;;5492395;26;20447;-76
2024/04/22 09:04:39;;;;;;;2.08;0.13;;;11.50;99.90;;;;;;5492185;26;19994;-76
2024/04/22 09:07:08;;;;;;;1.30;0.10;;;11.40;99.90;;;;;;5491990;26;20010;-76
2024/04/22 09:09:33;;;;;;;2.70;0.00;;;11.20;99.90;;;;;;5491962;26;20066;-76
2024/04/22 09:11:59;;;;;;;1.75;0.20;;;11.20;99.90;;;;;;5492322;26;20006;-76
2024/04/22 09:14:25;;;;;;;2.85;0.00;;;11.20;99.90;;;;;;5492226;26;20064;-76
2024/04/22 09:16:51;;;;;;;0.68;0.35;;;11.20;99.90;;;;;;5492150;26;20005;-76
2024/04/22 09:19:21;;;;;;;3.63;0.32;;;11.20;99.90;;;;;;5491946;26;20006;-76
2024/04/22 09:21:47;;;;;;;3.00;0.10;;;11.10;99.90;;;;;;5492007;26;20433;-76
2024/04/22 09:24:12;;;;;;;5.32;0.40;;;10.80;99.90;;;;;;5459974;26;20029;-77
2024/04/22 09:26:38;;;;;;;1.45;0.10;;;10.50;99.90;;;;;;5460099;26;19994;-76
2024/04/22 09:29:09;;;;;;;2.72;0.10;;;9.90;99.90;;;;;;5491928;26;20017;-76
2024/04/22 09:31:41;;;;;;;1.60;0.00;;;9.50;99.90;;;;;;5492377;26;19998;-76
2024/04/22 09:34:10;;;;;;;4.68;0.20;;;9.10;99.90;;;;;;5491919;26;20002;-76
2024/04/22 09:36:37;;;;;;;4.97;0.17;;;8.90;99.90;;;;;;5459579;26;19998;-76
2024/04/22 09:39:03;;;;;;;2.85;0.00;;;8.60;99.90;;;;;;5459737;26;19993;-77
2024/04/22 09:41:30;;;;;;;3.03;0.30;;;8.50;99.90;;;;;;5492207;26;20074;-76
2024/04/22 09:43:57;;;;;;;2.05;0.00;;;8.50;99.90;;;;;;5459003;26;20437;-76
2024/04/22 09:46:26;;;;;;;1.23;0.10;;;8.60;99.90;;;;;;5492183;26;19998;-77
2024/04/22 09:48:52;;;;;;;2.33;0.10;;;9.80;99.90;;;;;;5491742;26;20040;-76
2024/04/22 09:51:18;;;;;;;2.88;0.20;;;9.30;99.90;;;;;;5491630;26;19998;-76
2024/04/22 09:53:45;;;;;;;2.55;0.75;;;9.60;99.90;;;;;;5459327;26;20410;-76
2024/04/22 09:56:18;;;;;;;1.98;0.10;;;9.60;99.90;;;;;;5491982;26;20065;-76
2024/04/22 09:58:44;;;;;;;0.30;0.00;;;9.70;99.90;;;;;;5492173;26;19994;-77
2024/04/22 10:01:10;;;;;;;1.55;0.10;;;9.70;99.90;;;;;;5491635;26;19998;-76
2024/04/22 10:03:36;;;;;;;3.75;0.10;;;9.70;99.90;;;;;;5491186;26;19993;-76
2024/04/22 10:06:02;;;;;;;1.05;0.17;;;9.40;99.90;;;;;;5459389;26;20000;-76
2024/04/22 10:08:28;;;;;;;3.55;0.52;;;9.20;99.90;;;;;;5459154;26;20437;-77
2024/04/22 10:11:07;;;;;;;2.03;0.10;;;9.00;99.90;;;;;;5491558;26;20010;-76
2024/04/22 10:13:32;;;;;;;;;;;8.90;99.90;;;;;;5492057;26;20318;-76
2024/04/22 10:15:58;;;;;;;2.63;0.10;;;9.00;99.90;;;;;;5491124;26;19992;-76
2024/04/22 10:18:23;;;;;;;2.08;0.17;;;9.30;99.90;;;;;;5458727;26;20014;-76
2024/04/22 10:20:51;;;;;;;1.90;0.25;;;9.70;99.90;;;;;;5491369;26;20078;-76
2024/04/22 10:23:17;;;;;;;4.60;0.10;;;10.00;99.90;;;;;;5491317;26;19990;-76
2024/04/22 10:25:43;;;;;;;1.20;0.00;;;10.10;99.90;;;;;;5490991;26;20004;-77
2024/04/22 10:28:12;;;;;;;0.75;0.00;;;10.20;99.90;;;;;;5458518;26;20062;-76
2024/04/22 10:30:40;;;;;;;3.08;0.15;;;10.20;99.90;;;;;;5458877;26;19990;-76
2024/04/22 10:33:08;;;;;;;3.78;0.28;;;10.20;99.90;;;;;;5490959;26;20061;-76
2024/04/22 10:35:34;;;;;;;3.97;0.95;;;10.10;99.90;;;;;;5458749;26;20018;-76
2024/04/22 10:37:59;;;;;;;1.33;0.15;;;10.00;99.90;;;;;;5491204;26;19994;-77
2024/04/22 10:40:26;;;;;;;1.88;0.17;;;9.80;99.90;;;;;;5490871;26;20334;-77
2024/04/22 10:42:52;;;;;;;1.55;0.10;;;9.80;99.90;;;;;;5458486;26;20514;-76
2024/04/22 10:45:19;;;;;;;2.47;0.00;;;9.70;99.90;;;;;;5491027;26;20005;-76
2024/04/22 10:47:45;;;;;;;7.25;0.00;;;9.70;99.90;;;;;;5490522;26;20018;-77
2024/04/22 10:50:14;;;;;;;3.15;0.40;;;9.80;99.90;;;;;;5490954;26;20005;-76
2024/04/22 10:52:39;;;;;;;0.47;0.00;;;9.90;99.90;;;;;;5491187;26;19995;-76
2024/04/22 10:55:09;;;;;;;0.80;0.13;;;10.40;99.90;;;;;;5458151;26;20034;-77
2024/04/22 10:57:35;;;;;;;0.65;0.00;;;10.30;99.90;;;;;;5490914;26;19998;-76
2024/04/22 11:00:06;;;;;;;2.97;0.47;;;10.80;99.90;;;;;;5458587;26;20333;-76
2024/04/22 11:02:33;;;;;;;0.90;0.10;;;10.70;99.90;;;;;;5458222;26;20004;-76
2024/04/22 11:05:00;;;;;;;0.85;0.10;;;10.90;99.90;;;;;;5458543;26;20026;-76
2024/04/22 11:07:28;;;;;;;1.33;0.20;;;11.10;99.90;;;;;;5490341;26;19998;-76
2024/04/22 11:09:56;;;;;;;1.35;0.00;;;11.30;99.90;;;;;;5458748;26;20001;-77
2024/04/22 11:12:23;;;;;;;2.20;0.35;;;11.30;99.90;;;;;;5490564;26;20310;-76
2024/04/22 11:14:49;;;;;;;2.70;0.13;;;11.40;99.90;;;;;;5458189;26;20038;-76
2024/04/22 11:17:21;;;;;;;2.58;0.10;;;11.40;99.90;;;;;;5490578;26;19998;-77
2024/04/22 11:19:49;;;;;;;1.20;0.20;;;11.40;99.90;;;;;;5458432;26;19998;-77
2024/04/22 11:22:15;;;;;;;1.67;0.20;;;11.30;99.90;;;;;;5458558;26;20006;-77
2024/04/22 11:24:41;;;;;;;0.38;0.10;;;11.30;99.90;;;;;;5490108;26;19994;-76
2024/04/22 11:27:08;;;;;;;1.15;0.32;;;11.30;99.90;;;;;;5490084;26;20070;-77
2024/04/22 11:29:34;;;;;;;3.03;0.30;;;11.20;99.90;;;;;;5490417;26;20005;-76
2024/04/22 11:32:00;;;;;;;2.17;0.00;;;11.20;99.90;;;;;;5489813;26;19995;-76
2024/04/22 11:34:26;;;;;;;1.45;0.10;;;11.20;99.90;;;;;;5458049;26;20006;-76
2024/04/22 11:36:56;;;;;;;2.10;0.20;;;11.40;99.90;;;;;;5490165;26;19998;-76
2024/04/22 11:39:26;;;;;;;1.88;0.10;;;11.30;99.90;;;;;;5458255;26;19990;-76
2024/04/22 11:41:52;;;;;;;1.27;0.10;;;11.60;99.90;;;;;;5458077;26;20025;-76
2024/04/22 11:44:18;;;;;;;0.38;0.05;;;11.90;99.90;;;;;;5457732;26;20466;-77
2024/04/22 11:46:44;;;;;;;0.70;0.00;;;12.20;99.90;;;;;;5457810;26;20009;-76
2024/04/22 11:49:10;;;;;;;0.75;0.35;;;12.20;99.90;;;;;;5489536;26;19994;-76
2024/04/22 11:51:36;;;;;;;1.98;0.40;;;12.30;99.90;;;;;;5489569;26;20464;-76
2024/04/22 11:54:04;;;;;;;0.80;0.00;;;12.30;99.00;;;;;;5490122;26;19994;-76
2024/04/22 11:56:35;;;;;;;0.00;0.00;;;12.20;97.70;;;;;;5490141;26;19994;-76
2024/04/22 11:59:03;;;;;;;1.58;0.10;;;12.20;98.80;;;;;;5489821;26;20009;-76
2024/04/22 12:01:29;;;;;;;0.67;0.10;;;12.00;99.50;;;;;;5457773;26;20026;-77
2024/04/22 12:03:55;;;;;;;0.63;0.10;;;11.90;99.90;;;;;;5457332;26;19994;-76
2024/04/22 12:06:20;;;;;;;4.90;0.75;;;11.80;99.90;;;;;;5457442;26;19998;-76
2024/04/22 12:08:46;;;;;;;1.45;0.10;;;12.10;99.90;;;;;;5493357;26;20333;-77
2024/04/22 12:11:12;;;;;;;0.98;0.10;;;12.60;99.90;;;;;;5460912;26;19990;-76
2024/04/22 12:13:37;;;;;;;5.88;0.65;;;13.00;98.60;;;;;;5493036;26;19994;-76
2024/04/22 12:16:03;;;;;;;0.98;0.10;;;13.10;98.30;;;;;;5460881;26;20063;-76
2024/04/22 12:18:29;;;;;;;1.55;0.20;;;13.40;97.90;;;;;;5493245;26;20432;-76
2024/04/22 12:20:54;;;;;;;2.05;0.00;;;13.70;96.80;;;;;;5492964;26;19998;-76
2024/04/22 12:23:21;;;;;;;1.45;0.10;;;13.60;96.70;;;;;;5460618;26;20005;-77
2024/04/22 12:25:47;;;;;;;0.38;0.10;;;13.50;96.10;;;;;;5460517;26;19991;-76
2024/04/22 12:28:12;;;;;;;2.88;0.15;;;13.30;96.50;;;;;;5460490;26;19998;-77
2024/04/22 12:30:38;;;;;;;0.32;0.10;;;13.70;96.40;;;;;;5460723;26;19994;-76
2024/04/22 12:33:05;;;;;;;0.35;0.20;;;13.70;96.30;;;;;;5492868;26;19996;-76
2024/04/22 12:35:30;;;;;;;0.30;0.00;;;13.70;94.60;;;;;;5460551;26;20005;-76
2024/04/22 12:37:56;;;;;;;1.55;0.00;;;13.50;94.80;;;;;;5492776;26;20341;-76
2024/04/22 12:40:21;;;;;;;0.73;0.10;;;13.20;94.50;;;;;;5492727;26;19998;-76
2024/04/22 12:42:47;;;;;;;0.70;0.43;;;13.00;96.30;;;;;;5492897;26;20006;-77
2024/04/22 12:45:12;;;;;;;3.35;0.10;;;12.60;94.10;;;;;;5492617;26;20001;-76
2024/04/22 12:53:10;;;;;;;0.40;0.20;;;12.70;95.70;;;;;;5493781;26;20005;-76
2024/04/22 12:55:35;;;;;;;1.55;0.00;;;12.70;94.00;;;;;;5492388;26;19994;-76
2024/04/22 12:58:01;;;;;;;0.65;0.35;;;12.30;94.50;;;;;;5492783;26;20005;-76
2024/04/22 13:00:27;;;;;;;0.17;0.00;;;12.20;94.50;;;;;;5492367;26;20009;-76
2024/04/22 13:02:52;;;;;;;0.60;0.17;;;12.00;94.40;;;;;;5460069;26;20006;-76
2024/04/22 13:05:18;;;;;;;0.45;0.00;;;11.80;94.50;;;;;;5459976;26;19990;-76